KDDC/DDC METAR and TAF weather

Enter ICAO airport designator
Station Type Date Time Source
KDDC METAR 2019/10/19 06:52 UTC NOAA

KDDC 190652Z AUTO 02010KT 10SM CLR 11/09 A2976 RMK AO2 SLP056 T01110089


Station Type Date Time Source
KDDC Decoded METAR 2019/10/19 06:52 UTC NOAA

DODGE CITY REGIONAL AIRPORT, KS, United States (KDDC) 37-46N 99-58W 789M
Oct 19, 2019 - 02:52 AM EDT / 2019.10.19 0652 UTC
Wind: from the NNE (020 degrees) at 12 MPH (10 KT):0
Visibility: 10 mile(s):0
Sky conditions: clear
Temperature: 52.0 F (11.1 C)
Dew Point: 48.0 F (8.9 C)
Relative Humidity: 86%
Pressure (altimeter): 29.76 in. Hg (1007 hPa)
ob: KDDC 190652Z AUTO 02010KT 10SM CLR 11/09 A2976 RMK AO2 SLP056 T01110089
cycle: 7

Station Type Date Time Source
KDDC TAF 2019/10/19 06:36 UTC NOAA

TAF KDDC 190533Z 1906/2006 35012KT P6SM SCT200
FM192100 VRB05KT P6SM SKC

Example: see airport list